createdAt,value
2023-01-29T00:00:00.839Z,101061.25
2023-01-29T00:02:29.083Z,101013.59
2023-01-29T00:04:59.102Z,101070.84
2023-01-29T00:07:27.407Z,101052.47
2023-01-29T00:09:57.114Z,101016.75
2023-01-29T00:12:25.332Z,101042.28
2023-01-29T00:14:53.436Z,101055.91
2023-01-29T00:17:22.009Z,101068.06
2023-01-29T00:19:50.153Z,101065.38
2023-01-29T00:22:18.609Z,101061.00
2023-01-29T00:24:46.855Z,101052.97
2023-01-29T00:27:16.489Z,101051.97
2023-01-29T00:30:02.679Z,101038.59
2023-01-29T00:32:30.913Z,101061.84
2023-01-29T00:34:59.151Z,101020.63
2023-01-29T00:37:27.258Z,101039.81
2023-01-29T00:39:55.412Z,101017.69
2023-01-29T00:42:42.269Z,101027.88
2023-01-29T00:45:11.827Z,101023.75
2023-01-29T00:47:40.026Z,101000.19
2023-01-29T00:50:11.590Z,101034.22
2023-01-29T00:52:41.150Z,100984.88
2023-01-29T00:55:10.873Z,101038.72
2023-01-29T00:57:41.294Z,101013.53
2023-01-29T01:00:12.474Z,100973.19
2023-01-29T01:02:58.187Z,101021.78
2023-01-29T01:05:26.958Z,100984.72
2023-01-29T01:07:58.589Z,101016.41
2023-01-29T01:10:27.792Z,101022.63
2023-01-29T01:13:00.207Z,101023.50
2023-01-29T01:15:30.976Z,101030.53
2023-01-29T01:18:01.606Z,101023.50
2023-01-29T01:20:31.964Z,101012.78
2023-01-29T01:23:00.405Z,101018.13
2023-01-29T01:25:28.920Z,101020.81
2023-01-29T01:28:02.930Z,101012.78
2023-01-29T01:30:31.237Z,101002.06
2023-01-29T01:32:59.558Z,101004.75
2023-01-29T01:35:27.751Z,101002.06
2023-01-29T01:37:56.262Z,100987.28
2023-01-29T01:40:26.239Z,101007.44
2023-01-29T01:42:57.184Z,100994.84
2023-01-29T01:45:29.197Z,100983.34
2023-01-29T01:48:02.951Z,101018.13
2023-01-29T01:50:36.477Z,101017.16
2023-01-29T01:53:09.554Z,101023.50
2023-01-29T01:55:43.167Z,101002.91
2023-01-29T01:58:16.942Z,101008.25
2023-01-29T02:00:46.587Z,100991.34
2023-01-29T02:03:32.463Z,100981.47
2023-01-29T02:06:19.505Z,100980.88
2023-01-29T02:09:11.410Z,100968.19
2023-01-29T02:11:40.016Z,100967.25
2023-01-29T02:14:08.668Z,100969.91
2023-01-29T02:16:38.849Z,100957.47
2023-01-29T02:19:15.136Z,100960.03
2023-01-29T02:22:11.423Z,100958.22
2023-01-29T02:25:10.141Z,100927.34
2023-01-29T02:28:10.272Z,100949.56
2023-01-29T02:30:46.011Z,100885.00
2023-01-29T02:33:23.609Z,100957.47
2023-01-29T02:36:00.624Z,100954.81
2023-01-29T02:38:37.723Z,100956.66
2023-01-29T02:41:14.394Z,100953.13
2023-01-29T02:43:47.987Z,100919.59
2023-01-29T02:46:22.503Z,100913.50
2023-01-29T02:48:58.456Z,100928.16
2023-01-29T02:51:36.307Z,100929.00
2023-01-29T02:54:10.026Z,100929.88
2023-01-29T02:56:47.132Z,100931.69
2023-01-29T02:59:22.046Z,100920.84
2023-01-29T03:01:54.850Z,100916.34
2023-01-29T03:04:28.414Z,100907.44
2023-01-29T03:07:01.740Z,100912.66
2023-01-29T03:09:35.342Z,100910.97
2023-01-29T03:12:29.404Z,100910.97
2023-01-29T03:15:15.459Z,100918.03
2023-01-29T03:17:48.605Z,100923.38
2023-01-29T03:20:21.432Z,100918.03
2023-01-29T03:22:56.109Z,100900.78
2023-01-29T03:25:45.043Z,100917.16
2023-01-29T03:28:34.379Z,100892.53
2023-01-29T03:31:24.754Z,100903.06
2023-01-29T03:33:58.235Z,100910.97
2023-01-29T03:36:38.403Z,100866.28
2023-01-29T03:39:07.619Z,100898.53
2023-01-29T03:41:40.634Z,100873.53
2023-01-29T03:44:16.496Z,100878.84
2023-01-29T03:46:53.682Z,100881.50
2023-01-29T03:49:32.328Z,100880.91
2023-01-29T03:52:10.129Z,100868.13
2023-01-29T03:54:48.192Z,100873.47
2023-01-29T03:57:25.387Z,100867.25
2023-01-29T04:00:00.029Z,100868.13
2023-01-29T04:02:34.236Z,100878.84
2023-01-29T04:05:08.322Z,100867.13
2023-01-29T04:07:38.573Z,100874.44
2023-01-29T04:10:11.069Z,100852.56
2023-01-29T04:12:44.464Z,100844.00
2023-01-29T04:15:16.591Z,100826.31
2023-01-29T04:17:51.270Z,100844.00
2023-01-29T04:20:19.875Z,100848.38
2023-01-29T04:22:49.994Z,100837.94
2023-01-29T04:25:26.780Z,100826.09
2023-01-29T04:28:04.872Z,100825.25
2023-01-29T04:30:42.235Z,100835.13
2023-01-29T04:33:23.518Z,100835.97
2023-01-29T04:36:07.335Z,100830.63
2023-01-29T04:38:48.836Z,100811.41
2023-01-29T04:41:24.459Z,100752.97
2023-01-29T04:44:01.813Z,100725.72
2023-01-29T04:46:37.012Z,100809.19
2023-01-29T04:49:19.796Z,100810.88
2023-01-29T04:51:55.490Z,100778.91
2023-01-29T04:54:35.969Z,100810.88
2023-01-29T04:57:12.434Z,100798.47
2023-01-29T04:59:47.173Z,100789.44
2023-01-29T05:02:15.773Z,100787.75
2023-01-29T05:04:47.644Z,100763.00
2023-01-29T05:07:18.672Z,100787.75
2023-01-29T05:09:48.773Z,100710.91
2023-01-29T05:12:18.987Z,100749.59
2023-01-29T05:14:49.366Z,100706.53
2023-01-29T05:17:19.460Z,100751.94
2023-01-29T05:19:49.460Z,100707.69
2023-01-29T05:22:22.838Z,100741.22
2023-01-29T05:24:51.336Z,100712.97
2023-01-29T05:27:41.571Z,100669.72
2023-01-29T05:30:11.644Z,100729.66
2023-01-29T05:32:40.034Z,100735.88
2023-01-29T05:35:10.679Z,100723.47
2023-01-29T05:37:39.327Z,100706.22
2023-01-29T05:40:09.788Z,100675.44
2023-01-29T05:42:38.041Z,100718.94
2023-01-29T05:45:07.079Z,100701.66
2023-01-29T05:47:35.278Z,100735.00
2023-01-29T05:50:03.814Z,100721.47
2023-01-29T05:52:33.473Z,100721.75
2023-01-29T05:55:01.632Z,100696.75
2023-01-29T05:57:29.948Z,100698.44
2023-01-29T05:59:58.276Z,100717.84
2023-01-29T06:02:26.418Z,100705.41
2023-01-29T06:04:54.653Z,100689.34
2023-01-29T06:07:23.057Z,100694.69
2023-01-29T06:09:52.632Z,100692.00
2023-01-29T06:12:20.823Z,100642.88
2023-01-29T06:14:49.053Z,100678.88
2023-01-29T06:17:17.273Z,100684.97
2023-01-29T06:19:45.499Z,100669.25
2023-01-29T06:22:14.220Z,100694.97
2023-01-29T06:24:42.592Z,100712.75
2023-01-29T06:27:12.144Z,100701.75
2023-01-29T06:29:40.425Z,100702.72
2023-01-29T06:32:09.061Z,100714.16
2023-01-29T06:34:37.393Z,100712.47
2023-01-29T06:37:05.563Z,100713.31
2023-01-29T06:39:34.316Z,100719.53
2023-01-29T06:42:02.466Z,100706.50
2023-01-29T06:44:32.079Z,100685.34
2023-01-29T06:47:00.178Z,100718.81
2023-01-29T06:49:30.054Z,100709.34
2023-01-29T06:51:58.650Z,100687.03
2023-01-29T06:54:27.102Z,100688.19
2023-01-29T06:56:56.316Z,100687.91
2023-01-29T06:59:24.568Z,100684.53
2023-01-29T07:01:54.276Z,100648.66
2023-01-29T07:04:22.440Z,100658.81
2023-01-29T07:06:50.728Z,100665.09
2023-01-29T07:09:19.082Z,100649.28
2023-01-29T07:11:48.088Z,100630.63
2023-01-29T07:14:16.204Z,100656.91
2023-01-29T07:16:44.442Z,100649.69
2023-01-29T07:19:14.065Z,100653.22
2023-01-29T07:21:42.335Z,100605.22
2023-01-29T07:24:10.605Z,100606.91
2023-01-29T07:26:38.929Z,100639.97
2023-01-29T07:29:07.184Z,100643.66
2023-01-29T07:31:35.573Z,100572.22
2023-01-29T07:34:03.892Z,100641.13
2023-01-29T07:36:33.437Z,100631.22
2023-01-29T07:39:02.141Z,100582.38
2023-01-29T07:41:30.304Z,100579.28
2023-01-29T07:43:58.522Z,100596.53
2023-01-29T07:46:26.689Z,100622.22
2023-01-29T07:48:54.865Z,100613.19
2023-01-29T07:51:23.537Z,100611.50
2023-01-29T07:53:53.463Z,100599.34
2023-01-29T07:56:21.709Z,100598.66
2023-01-29T07:58:50.289Z,100599.09
2023-01-29T08:01:18.638Z,100551.94
2023-01-29T08:03:47.028Z,100594.72
2023-01-29T08:06:15.316Z,100592.03
2023-01-29T08:08:43.631Z,100589.50
2023-01-29T08:11:13.296Z,100577.34
2023-01-29T08:13:41.493Z,100584.13
2023-01-29T08:16:10.154Z,100609.78
2023-01-29T08:18:38.523Z,100570.31
2023-01-29T08:21:07.051Z,100583.00
2023-01-29T08:23:35.169Z,100551.66
2023-01-29T08:26:04.834Z,100557.88
2023-01-29T08:28:35.334Z,100583.00
2023-01-29T08:31:03.847Z,100579.50
2023-01-29T08:33:39.072Z,100575.97
2023-01-29T08:36:08.903Z,100561.59
2023-01-29T08:38:37.216Z,100556.22
2023-01-29T08:41:05.769Z,100559.91
2023-01-29T08:43:37.125Z,100543.97
2023-01-29T08:46:06.272Z,100508.28
2023-01-29T08:48:35.405Z,100500.38
2023-01-29T08:51:04.617Z,100525.47
2023-01-29T08:53:33.061Z,100560.63
2023-01-29T08:56:01.262Z,100561.59
2023-01-29T08:58:29.597Z,100565.13
2023-01-29T09:01:07.560Z,100555.66
2023-01-29T09:03:35.822Z,100576.84
2023-01-29T09:06:04.130Z,100567.94
2023-01-29T09:08:32.328Z,100572.31
2023-01-29T09:11:01.013Z,100583.00
2023-01-29T09:13:29.144Z,100577.66
2023-01-29T09:16:02.500Z,100561.00
2023-01-29T09:18:32.089Z,100578.50
2023-01-29T09:21:02.110Z,100583.28
2023-01-29T09:23:30.991Z,100588.38
2023-01-29T09:26:00.009Z,100600.81
2023-01-29T09:28:28.806Z,100542.38
2023-01-29T09:30:57.457Z,100583.00
2023-01-29T09:33:27.272Z,100588.38
2023-01-29T09:35:55.594Z,100542.38
2023-01-29T09:38:23.857Z,100569.50
2023-01-29T09:41:02.024Z,100584.72
2023-01-29T09:43:42.216Z,100584.72
2023-01-29T09:46:19.375Z,100568.66
2023-01-29T09:48:54.136Z,100573.44
2023-01-29T09:51:29.999Z,100449.81
2023-01-29T09:54:08.371Z,100558.91
2023-01-29T09:56:36.788Z,100563.31
2023-01-29T09:59:05.029Z,100552.88
2023-01-29T10:01:38.629Z,100549.19
2023-01-29T10:04:38.560Z,100531.00
2023-01-29T10:07:24.067Z,100550.06
2023-01-29T10:10:16.474Z,100540.44
2023-01-29T10:12:59.936Z,100467.66
2023-01-29T10:15:40.551Z,100529.72
2023-01-29T10:18:29.919Z,100523.53
2023-01-29T10:21:09.316Z,100473.63
2023-01-29T10:23:40.861Z,100493.63
2023-01-29T10:26:13.109Z,100513.66
2023-01-29T10:28:46.147Z,100482.91
2023-01-29T10:31:20.829Z,100496.63
2023-01-29T10:34:08.544Z,100444.88
2023-01-29T10:36:43.930Z,100478.69
2023-01-29T10:39:18.724Z,100432.19
2023-01-29T10:41:59.241Z,100467.44
2023-01-29T10:44:39.657Z,100474.91
2023-01-29T10:47:46.320Z,100465.16
2023-01-29T10:50:35.785Z,100393.59
2023-01-29T10:53:22.141Z,100459.81
2023-01-29T10:56:02.505Z,100455.31
2023-01-29T10:58:41.448Z,100449.09
2023-01-29T11:01:10.878Z,100403.72
2023-01-29T11:03:39.303Z,100397.53
2023-01-29T11:06:14.386Z,100424.03
2023-01-29T11:08:52.114Z,100389.91
2023-01-29T11:11:22.571Z,100402.59
2023-01-29T11:13:57.702Z,100386.69
2023-01-29T11:16:26.826Z,100392.72
2023-01-29T11:18:57.600Z,100394.44
2023-01-29T11:21:27.328Z,100382.84
2023-01-29T11:24:16.971Z,100379.19
2023-01-29T11:26:47.270Z,100368.75
2023-01-29T11:29:44.795Z,100359.75
2023-01-29T11:32:16.199Z,100360.72
2023-01-29T11:35:02.490Z,100362.44
2023-01-29T11:37:36.113Z,100323.97
2023-01-29T11:40:42.119Z,100360.72
2023-01-29T11:43:32.141Z,100352.97
2023-01-29T11:46:03.948Z,100347.91
2023-01-29T11:48:41.002Z,100342.25
2023-01-29T11:51:12.190Z,100334.09
2023-01-29T11:53:43.255Z,100334.09
2023-01-29T11:56:24.196Z,100333.78
2023-01-29T11:58:55.563Z,100323.38
2023-01-29T12:01:33.276Z,100317.88
2023-01-29T12:04:02.733Z,100318.88
2023-01-29T12:06:36.991Z,100295.22
2023-01-29T12:09:14.976Z,100310.13
2023-01-29T12:11:45.730Z,100315.19
2023-01-29T12:14:29.081Z,100309.00
2023-01-29T12:17:02.781Z,100301.13
2023-01-29T12:19:36.369Z,100303.66
2023-01-29T12:22:07.336Z,100304.47
2023-01-29T12:24:39.225Z,100304.47
2023-01-29T12:27:16.241Z,100281.97
2023-01-29T12:29:51.089Z,100284.75
2023-01-29T12:32:31.079Z,100290.13
2023-01-29T12:35:05.298Z,100227.91
2023-01-29T12:37:42.177Z,100265.59
2023-01-29T12:40:16.065Z,100268.69
2023-01-29T12:42:50.078Z,100238.03
2023-01-29T12:45:20.465Z,100242.22
2023-01-29T12:47:51.456Z,100242.22
2023-01-29T12:50:22.371Z,100243.59
2023-01-29T12:52:55.050Z,100240.91
2023-01-29T12:55:26.132Z,100243.59
2023-01-29T12:57:59.549Z,100206.84
2023-01-29T13:00:30.590Z,100227.53
2023-01-29T13:03:05.282Z,100214.00
2023-01-29T13:05:40.177Z,100215.13
2023-01-29T13:08:11.880Z,100214.28
2023-01-29T13:10:44.266Z,100200.03
2023-01-29T13:13:31.886Z,100199.06
2023-01-29T13:16:01.664Z,100194.53
2023-01-29T13:18:41.508Z,100198.06
2023-01-29T13:21:15.712Z,100194.53
2023-01-29T13:23:47.121Z,100191.03
2023-01-29T13:26:19.347Z,100181.28
2023-01-29T13:28:50.539Z,100175.63
2023-01-29T13:31:41.354Z,100174.97
2023-01-29T13:34:16.146Z,100173.97
2023-01-29T13:36:46.848Z,100126.03
2023-01-29T13:39:24.603Z,100156.66
2023-01-29T13:41:54.186Z,100140.94
2023-01-29T13:44:27.319Z,100169.59
2023-01-29T13:46:59.216Z,100171.44
2023-01-29T13:49:37.155Z,100127.84
2023-01-29T13:52:18.984Z,100159.88
2023-01-29T13:54:55.129Z,100146.47
2023-01-29T13:57:47.716Z,100143.66
2023-01-29T14:01:01.227Z,100066.25
2023-01-29T14:04:03.757Z,100149.16
2023-01-29T14:06:54.143Z,100138.44
2023-01-29T14:10:03.367Z,100124.38
2023-01-29T14:12:38.631Z,100118.03
2023-01-29T14:15:26.225Z,100098.44
2023-01-29T14:18:15.817Z,100093.06
2023-01-29T14:20:54.773Z,100100.94
2023-01-29T14:23:32.457Z,100084.06
2023-01-29T14:26:03.038Z,100067.16
2023-01-29T14:28:33.542Z,99994.41
2023-01-29T14:31:02.717Z,100059.81
2023-01-29T14:33:37.157Z,100028.72
2023-01-29T14:36:11.271Z,100039.06
2023-01-29T14:38:41.407Z,100035.56
2023-01-29T14:41:26.927Z,100018.78
2023-01-29T14:44:36.788Z,100015.97
2023-01-29T14:47:05.467Z,100011.63
2023-01-29T14:49:52.734Z,100000.91
2023-01-29T14:52:27.927Z,99990.19
2023-01-29T14:55:03.130Z,99984.84
2023-01-29T14:57:32.335Z,99963.72
2023-01-29T15:00:05.453Z,99967.91
2023-01-29T15:02:40.073Z,99974.13
2023-01-29T15:05:13.221Z,99973.13
2023-01-29T15:07:50.088Z,99971.28
2023-01-29T15:10:23.392Z,99965.94
2023-01-29T15:12:58.696Z,99957.75
2023-01-29T15:15:37.713Z,99963.09
2023-01-29T15:18:09.695Z,99951.53
2023-01-29T15:20:39.673Z,99938.59
2023-01-29T15:23:26.831Z,99941.69
2023-01-29T15:25:58.399Z,99908.00
2023-01-29T15:28:27.977Z,99914.44
2023-01-29T15:30:59.174Z,99916.88
2023-01-29T15:33:28.250Z,99916.88
2023-01-29T15:36:07.490Z,99861.75
2023-01-29T15:38:37.657Z,99912.22
2023-01-29T15:41:19.017Z,99885.06
2023-01-29T15:43:49.199Z,99868.69
2023-01-29T15:46:24.218Z,99877.72
2023-01-29T15:48:54.010Z,99877.41
2023-01-29T15:51:25.257Z,99870.34
2023-01-29T15:53:56.716Z,99866.84
2023-01-29T15:56:29.054Z,99863.31
2023-01-29T15:59:00.264Z,99857.66
2023-01-29T16:01:29.814Z,99838.22
2023-01-29T16:04:01.272Z,99825.84
2023-01-29T16:06:31.294Z,99821.00
2023-01-29T16:09:01.045Z,99820.16
2023-01-29T16:11:29.477Z,99788.59
2023-01-29T16:13:58.629Z,99809.44
2023-01-29T16:16:28.976Z,99805.75
2023-01-29T16:19:00.754Z,99794.22
2023-01-29T16:21:33.084Z,99793.38
2023-01-29T16:24:09.368Z,99783.53
2023-01-29T16:26:39.954Z,99780.00
2023-01-29T16:29:11.056Z,99780.00
2023-01-29T16:31:41.064Z,99761.25
2023-01-29T16:34:11.419Z,99761.25
2023-01-29T16:36:47.179Z,99745.19
2023-01-29T16:39:20.937Z,99733.63
2023-01-29T16:42:20.977Z,99715.72
2023-01-29T16:44:52.523Z,99718.56
2023-01-29T16:47:28.327Z,99682.75
2023-01-29T16:49:58.006Z,99705.16
2023-01-29T16:52:28.828Z,99698.00
2023-01-29T16:55:16.008Z,99686.28
2023-01-29T16:57:54.797Z,99654.06
2023-01-29T17:00:26.489Z,99672.88
2023-01-29T17:02:59.415Z,99654.13
2023-01-29T17:05:30.505Z,99655.16
2023-01-29T17:07:59.709Z,99609.53
2023-01-29T17:10:30.771Z,99612.47
2023-01-29T17:13:03.213Z,99572.38
2023-01-29T17:15:35.177Z,99595.38
2023-01-29T17:18:03.766Z,99588.19
2023-01-29T17:20:32.866Z,99558.06
2023-01-29T17:23:00.998Z,99563.09
2023-01-29T17:25:30.708Z,99557.75
2023-01-29T17:28:01.799Z,99482.81
2023-01-29T17:30:34.719Z,99552.38
2023-01-29T17:33:03.717Z,99523.78
2023-01-29T17:35:31.926Z,99483.72
2023-01-29T17:38:00.039Z,99510.38
2023-01-29T17:40:37.471Z,99513.22
2023-01-29T17:43:07.609Z,99512.06
2023-01-29T17:45:35.795Z,99504.50
2023-01-29T17:48:03.932Z,99515.75
2023-01-29T17:50:33.492Z,99515.75
2023-01-29T17:53:02.776Z,99506.19
2023-01-29T17:55:32.263Z,99504.19
2023-01-29T17:58:00.311Z,99503.16
2023-01-29T18:00:28.560Z,99496.47
2023-01-29T18:02:58.195Z,99500.50
2023-01-29T18:05:26.266Z,99505.38
2023-01-29T18:07:54.968Z,99480.72
2023-01-29T18:10:23.587Z,99473.84
2023-01-29T18:12:53.051Z,99495.13
2023-01-29T18:15:21.206Z,99487.94
2023-01-29T18:17:52.173Z,99494.16
2023-01-29T18:20:23.656Z,99492.28
2023-01-29T18:22:53.856Z,99475.41
2023-01-29T18:25:24.677Z,99484.44
2023-01-29T18:27:54.422Z,99465.53
2023-01-29T18:30:22.761Z,99463.84
2023-01-29T18:32:50.979Z,99448.28
2023-01-29T18:35:19.375Z,99415.47
2023-01-29T18:37:47.827Z,99439.59
2023-01-29T18:40:17.452Z,99427.22
2023-01-29T18:42:45.893Z,99379.97
2023-01-29T18:45:16.849Z,99427.22
2023-01-29T18:47:45.095Z,99443.28
2023-01-29T18:50:14.713Z,99445.09
2023-01-29T18:52:42.751Z,99435.25
2023-01-29T18:55:11.134Z,99437.91
2023-01-29T18:58:28.308Z,99436.22
2023-01-29T19:00:29.829Z,99419.34
2023-01-29T19:02:57.859Z,99407.09
2023-01-29T19:05:25.937Z,99402.44
2023-01-29T19:07:54.096Z,99401.59
2023-01-29T19:10:22.707Z,99390.38
2023-01-29T19:12:50.767Z,99395.25
2023-01-29T19:15:21.680Z,99375.66
2023-01-29T19:17:51.219Z,99377.31
2023-01-29T19:20:19.817Z,99365.78
2023-01-29T19:22:48.452Z,99362.09
2023-01-29T19:25:17.702Z,99340.69
2023-01-29T19:27:46.120Z,99337.16
2023-01-29T19:30:14.817Z,99265.91
2023-01-29T19:32:42.838Z,99309.56
2023-01-29T19:35:12.358Z,99236.50
2023-01-29T19:37:40.451Z,99299.03
2023-01-29T19:40:09.553Z,99306.88
2023-01-29T19:42:38.178Z,99293.34
2023-01-29T19:45:07.190Z,99285.47
2023-01-29T19:47:39.748Z,99280.94
2023-01-29T19:50:08.638Z,99276.41
2023-01-29T19:52:50.623Z,99268.56
2023-01-29T19:55:20.300Z,99264.84
2023-01-29T19:57:49.156Z,99240.81
2023-01-29T20:00:18.903Z,99259.50
2023-01-29T20:02:47.181Z,99241.78
2023-01-29T20:05:18.437Z,99233.75
2023-01-29T20:07:49.832Z,99220.69
2023-01-29T20:10:18.354Z,99220.34
2023-01-29T20:12:47.523Z,99211.66
2023-01-29T20:15:16.126Z,99200.94
2023-01-29T20:17:45.744Z,99191.94
2023-01-29T20:20:16.623Z,99186.56
2023-01-29T20:22:44.795Z,99168.81
2023-01-29T20:25:14.700Z,99161.47
2023-01-29T20:27:42.781Z,99134.88
2023-01-29T20:30:12.281Z,99132.19
2023-01-29T20:32:40.382Z,99122.31
2023-01-29T20:35:09.910Z,99120.63
2023-01-29T20:37:38.000Z,99101.88
2023-01-29T20:40:07.109Z,99104.56
2023-01-29T20:42:36.677Z,99079.19
2023-01-29T20:45:05.770Z,99088.50
2023-01-29T20:47:33.897Z,99077.78
2023-01-29T20:50:08.502Z,99008.72
2023-01-29T20:52:36.695Z,99052.69
2023-01-29T20:55:06.759Z,99032.34
2023-01-29T20:57:37.119Z,99036.63
2023-01-29T21:00:06.003Z,99031.28
2023-01-29T21:02:34.263Z,99015.22
2023-01-29T21:05:02.432Z,99017.91
2023-01-29T21:07:30.797Z,98994.78
2023-01-29T21:09:58.988Z,98984.94
2023-01-29T21:12:27.057Z,98985.78
2023-01-29T21:14:56.691Z,98955.41
2023-01-29T21:17:27.184Z,98957.22
2023-01-29T21:19:56.123Z,98932.03
2023-01-29T21:22:24.396Z,98943.94
2023-01-29T21:24:52.503Z,98945.63
2023-01-29T21:27:20.628Z,98940.25
2023-01-29T21:29:48.748Z,98925.00
2023-01-29T21:32:18.908Z,98894.56
2023-01-29T21:34:46.979Z,98904.78
2023-01-29T21:37:15.001Z,98903.59
2023-01-29T21:39:43.000Z,98901.94
2023-01-29T21:42:28.643Z,98886.72
2023-01-29T21:44:56.675Z,98886.72
2023-01-29T21:47:26.125Z,98881.34
2023-01-29T21:49:54.181Z,98879.66
2023-01-29T21:52:22.299Z,98826.63
2023-01-29T21:54:50.313Z,98859.94
2023-01-29T21:57:18.415Z,98864.44
2023-01-29T21:59:50.033Z,98854.94
2023-01-29T22:02:22.355Z,98849.22
2023-01-29T22:04:52.729Z,98849.22
2023-01-29T22:07:20.797Z,98850.22
2023-01-29T22:09:49.004Z,98798.56
2023-01-29T22:12:17.161Z,98833.16
2023-01-29T22:14:46.143Z,98833.97
2023-01-29T22:17:14.585Z,98811.75
2023-01-29T22:19:42.726Z,98744.38
2023-01-29T22:22:15.737Z,98814.44
2023-01-29T22:24:45.900Z,98754.78
2023-01-29T22:27:14.701Z,98742.81
2023-01-29T22:29:42.936Z,98803.72
2023-01-29T22:32:11.900Z,98795.69
2023-01-29T22:34:40.172Z,98817.09
2023-01-29T22:37:08.908Z,98787.00
2023-01-29T22:39:38.389Z,98801.03
2023-01-29T22:42:06.696Z,98790.34
2023-01-29T22:44:34.937Z,98781.28
2023-01-29T22:47:03.099Z,98774.28
2023-01-29T22:49:31.573Z,98750.91
2023-01-29T22:52:11.940Z,98701.16
2023-01-29T22:54:42.814Z,98692.28
2023-01-29T22:57:12.858Z,98684.06
2023-01-29T22:59:41.149Z,98697.63
2023-01-29T23:02:09.674Z,98693.97
2023-01-29T23:04:37.770Z,98709.19
2023-01-29T23:07:06.181Z,98699.31
2023-01-29T23:09:34.287Z,98700.97
2023-01-29T23:12:03.847Z,98682.31
2023-01-29T23:14:32.165Z,98692.28
2023-01-29T23:17:00.289Z,98687.78
2023-01-29T23:19:30.094Z,98696.63
2023-01-29T23:21:58.219Z,98678.72
2023-01-29T23:24:26.364Z,98648.47
2023-01-29T23:27:11.936Z,98654.81
2023-01-29T23:29:41.600Z,98626.22
2023-01-29T23:32:09.887Z,98638.75
2023-01-29T23:34:38.052Z,98628.03
2023-01-29T23:37:06.294Z,98576.19
2023-01-29T23:39:34.867Z,98611.97
2023-01-29T23:42:03.541Z,98623.53
2023-01-29T23:44:31.694Z,98607.47
2023-01-29T23:47:01.246Z,98597.59
2023-01-29T23:49:29.358Z,98603.94
2023-01-29T23:51:57.613Z,98608.31
2023-01-29T23:54:26.995Z,98614.47
2023-01-29T23:56:55.170Z,98629.72
2023-01-29T23:59:23.433Z,98619.38
